Time;durP1;ratioP1;P1;durP2;ratioP2;P2;SDS_P1;SDS_P2;PMS_P1;PMS_P2;Temp;Humidity;BMP_temperature;BMP_pressure;BME280_temperature;BME280_humidity;BME280_pressure;Samples;Min_cycle;Max_cycle;Signal;HPM_P1;HPM_P2
2023/06/17 00:02:08;;;;;;;;;;;17.60;63.60;;;;;;5109472;28;20006;-76
2023/06/17 00:04:33;;;;;;;;;;;17.60;63.60;;;;;;5110962;27;19962;-76
2023/06/17 00:07:00;;;;;;;;;;;17.50;63.50;;;;;;5110936;28;19911;-76
2023/06/17 00:09:26;;;;;;;;;;;17.40;63.60;;;;;;5110800;28;20001;-76
2023/06/17 00:11:52;;;;;;;;;;;17.40;63.80;;;;;;5110761;28;20279;-77
2023/06/17 00:14:20;;;;;;;;;;;17.40;63.90;;;;;;5110574;28;19973;-76
2023/06/17 00:16:49;;;;;;;;;;;17.40;63.90;;;;;;5110836;28;19916;-76
2023/06/17 00:19:15;;;;;;;;;;;17.50;63.90;;;;;;5110684;27;20261;-76
2023/06/17 00:21:49;;;;;;;;;;;17.60;63.80;;;;;;5110637;28;19916;-76
2023/06/17 00:24:15;;;;;;;;;;;17.60;63.80;;;;;;5110597;28;19919;-76
2023/06/17 00:26:41;;;;;;;;;;;17.60;63.80;;;;;;5110599;27;19912;-76
2023/06/17 00:29:06;;;;;;;;;;;17.50;63.70;;;;;;5109063;28;20395;-76
2023/06/17 00:31:32;;;;;;;;;;;17.50;63.70;;;;;;5110418;27;19912;-76
2023/06/17 00:33:58;;;;;;;;;;;17.50;63.80;;;;;;5110357;28;20324;-76
2023/06/17 00:36:23;;;;;;;;;;;17.50;63.80;;;;;;5110206;28;20002;-76
2023/06/17 00:38:50;;;;;;;;;;;17.50;63.80;;;;;;5110337;28;20384;-76
2023/06/17 00:41:15;;;;;;;;;;;17.40;63.80;;;;;;5110189;28;19964;-76
2023/06/17 00:43:41;;;;;;;;;;;17.40;63.90;;;;;;5109268;28;19912;-76
2023/06/17 00:46:07;;;;;;;;;;;17.40;64.00;;;;;;5110116;28;20260;-76
2023/06/17 00:48:32;;;;;;;;;;;17.40;63.90;;;;;;5110023;28;20997;-76
2023/06/17 00:51:04;;;;;;;;;;;17.40;63.80;;;;;;5110025;28;19950;-76
2023/06/17 00:53:30;;;;;;;;;;;17.40;63.80;;;;;;5110131;28;19915;-76
2023/06/17 00:55:58;;;;;;;;;;;17.40;64.20;;;;;;5109954;28;19916;-76
2023/06/17 00:58:24;;;;;;;;;;;17.40;63.70;;;;;;5109986;28;19916;-76
2023/06/17 01:00:50;;;;;;;;;;;17.30;63.70;;;;;;5109724;28;19999;-76
2023/06/17 01:03:17;;;;;;;;;;;17.30;63.70;;;;;;5109747;28;20424;-76
2023/06/17 01:05:43;;;;;;;;;;;17.30;63.80;;;;;;5109839;27;20493;-76
2023/06/17 01:08:16;;;;;;;;;;;17.30;63.80;;;;;;5109963;28;19912;-76
2023/06/17 01:10:51;;;;;;;;;;;17.30;63.80;;;;;;5108349;28;19962;-76
2023/06/17 01:13:17;;;;;;;;;;;17.30;63.70;;;;;;5109606;28;19915;-76
2023/06/17 01:15:43;;;;;;;;;;;17.30;63.70;;;;;;5109512;28;19916;-76
2023/06/17 01:18:09;;;;;;;;;;;17.30;63.70;;;;;;5109842;28;20010;-76
2023/06/17 01:20:35;;;;;;;;;;;17.30;63.90;;;;;;5109468;28;20375;-76
2023/06/17 01:23:02;;;;;;;;;;;17.30;63.90;;;;;;5109849;28;19931;-76
2023/06/17 01:25:31;;;;;;;;;;;17.30;63.80;;;;;;5109527;28;19912;-76
2023/06/17 01:28:09;;;;;;;;;;;17.40;63.80;;;;;;5108610;28;20261;-76
2023/06/17 01:30:34;;;;;;;;;;;17.30;63.80;;;;;;5107979;28;19912;-76
2023/06/17 01:33:00;;;;;;;;;;;17.30;63.80;;;;;;5109523;28;19912;-76
2023/06/17 01:35:31;;;;;;;;;;;17.40;63.90;;;;;;5109288;28;19912;-76
2023/06/17 01:38:00;;;;;;;;;;;17.40;64.00;;;;;;5109127;28;19994;-76
2023/06/17 01:40:28;;;;;;;;;;;17.40;64.00;;;;;;5109121;28;20293;-76
2023/06/17 01:42:53;;;;;;;;;;;17.50;64.10;;;;;;5109070;28;20003;-76
2023/06/17 01:45:19;;;;;;;;;;;17.60;64.10;;;;;;5109031;28;19982;-76
2023/06/17 01:47:45;;;;;;;;;;;17.60;64.00;;;;;;5107711;28;20356;-76
2023/06/17 01:50:11;;;;;;;;;;;17.60;63.90;;;;;;5108894;28;19919;-76
2023/06/17 01:52:36;;;;;;;;;;;17.60;63.90;;;;;;5108931;28;19991;-76
2023/06/17 01:55:02;;;;;;;;;;;17.50;63.90;;;;;;5107186;28;20010;-76
2023/06/17 01:57:28;;;;;;;;;;;17.50;64.10;;;;;;5108612;28;20035;-76
2023/06/17 01:59:54;;;;;;;;;;;17.40;64.10;;;;;;5108692;28;20459;-76
2023/06/17 02:02:20;;;;;;;;;;;17.40;64.00;;;;;;5108636;28;19922;-76
2023/06/17 02:04:47;;;;;;;;;;;17.40;64.00;;;;;;5108784;28;20002;-76
2023/06/17 02:07:13;;;;;;;;;;;17.30;64.10;;;;;;5108655;28;20430;-76
2023/06/17 02:09:39;;;;;;;;;;;17.20;64.20;;;;;;5108601;28;19916;-76
2023/06/17 02:12:05;;;;;;;;;;;17.20;64.40;;;;;;5108436;28;19912;-76
2023/06/17 02:14:31;;;;;;;;;;;17.20;64.50;;;;;;5108128;27;20034;-76
2023/06/17 02:16:56;;;;;;;;;;;17.20;64.50;;;;;;5108577;28;20474;-76
2023/06/17 02:19:22;;;;;;;;;;;17.20;64.60;;;;;;5108510;28;20394;-76
2023/06/17 02:21:48;;;;;;;;;;;17.20;64.50;;;;;;5108449;28;20340;-76
2023/06/17 02:24:13;;;;;;;;;;;17.10;64.50;;;;;;5108370;28;20018;-76
2023/06/17 02:26:40;;;;;;;;;;;17.10;64.60;;;;;;5108434;28;19908;-76
2023/06/17 02:29:06;;;;;;;;;;;17.10;64.60;;;;;;5108398;28;19911;-76
2023/06/17 02:31:32;;;;;;;;;;;17.00;64.60;;;;;;5108393;28;20039;-76
2023/06/17 02:33:58;;;;;;;;;;;17.00;64.60;;;;;;5108345;28;20343;-76
2023/06/17 02:36:24;;;;;;;;;;;17.00;64.60;;;;;;5108376;28;19908;-76
2023/06/17 02:38:52;;;;;;;;;;;17.00;64.50;;;;;;5108216;28;19915;-76
2023/06/17 02:41:18;;;;;;;;;;;17.00;64.50;;;;;;5108264;28;19908;-76
2023/06/17 02:43:43;;;;;;;;;;;17.00;64.60;;;;;;5108253;28;19915;-76
2023/06/17 02:46:09;;;;;;;;;;;16.90;64.50;;;;;;5108245;28;19919;-76
2023/06/17 02:48:35;;;;;;;;;;;16.80;64.50;;;;;;5108182;28;19912;-76
2023/06/17 02:51:01;;;;;;;;;;;16.80;64.60;;;;;;5106885;28;19916;-77
2023/06/17 02:53:27;;;;;;;;;;;16.80;64.70;;;;;;5108143;28;19938;-76
2023/06/17 02:55:53;;;;;;;;;;;16.80;64.60;;;;;;5108099;28;19915;-76
2023/06/17 02:58:19;;;;;;;;;;;16.80;64.60;;;;;;5106818;28;19946;-75
2023/06/17 03:00:46;;;;;;;;;;;16.80;64.60;;;;;;5108474;28;19951;-77
2023/06/17 03:03:12;;;;;;;;;;;16.80;64.60;;;;;;5107879;28;19919;-76
2023/06/17 03:05:37;;;;;;;;;;;16.80;64.50;;;;;;5108306;28;19908;-77
2023/06/17 03:08:03;;;;;;;;;;;16.90;64.40;;;;;;5110682;28;19916;-77
2023/06/17 03:10:29;;;;;;;;;;;17.00;64.30;;;;;;5110697;28;20308;-77
2023/06/17 03:12:55;;;;;;;;;;;17.00;64.30;;;;;;5111982;28;19916;-77
2023/06/17 03:15:20;;;;;;;;;;;17.00;64.30;;;;;;5110711;28;19915;-77
2023/06/17 03:17:46;;;;;;;;;;;16.90;64.30;;;;;;5112067;28;19912;-77
2023/06/17 03:20:12;;;;;;;;;;;16.90;64.40;;;;;;5111816;28;19942;-76
2023/06/17 03:22:38;;;;;;;;;;;16.90;64.40;;;;;;5111763;28;20296;-76
2023/06/17 03:25:03;;;;;;;;;;;16.90;64.50;;;;;;5111902;28;19950;-77
2023/06/17 03:27:29;;;;;;;;;;;16.90;64.50;;;;;;5111785;28;20150;-76
2023/06/17 03:29:55;;;;;;;;;;;16.90;64.50;;;;;;5111660;28;20368;-77
2023/06/17 03:32:21;;;;;;;;;;;16.90;64.60;;;;;;5111655;28;19960;-76
2023/06/17 03:34:46;;;;;;;;;;;16.90;64.60;;;;;;5111664;28;19927;-76
2023/06/17 03:37:12;;;;;;;;;;;17.00;64.60;;;;;;5111496;28;19912;-77
2023/06/17 03:39:37;;;;;;;;;;;17.00;64.60;;;;;;5110225;28;20378;-76
2023/06/17 03:42:03;;;;;;;;;;;17.00;64.50;;;;;;5111348;28;20054;-77
2023/06/17 03:44:28;;;;;;;;;;;17.10;64.60;;;;;;5111365;28;20433;-77
2023/06/17 03:46:56;;;;;;;;;;;17.10;64.40;;;;;;5111379;28;19952;-77
2023/06/17 03:49:22;;;;;;;;;;;17.20;64.30;;;;;;5111249;28;19908;-76
2023/06/17 03:51:47;;;;;;;;;;;17.20;64.30;;;;;;5111136;28;19914;-77
2023/06/17 03:54:13;;;;;;;;;;;17.20;64.30;;;;;;5111576;28;19919;-77
2023/06/17 03:56:39;;;;;;;;;;;17.20;64.40;;;;;;5111169;28;19923;-77
2023/06/17 03:59:05;;;;;;;;;;;17.10;64.40;;;;;;5111154;28;19982;-76
2023/06/17 04:01:30;;;;;;;;;;;17.10;64.50;;;;;;5110995;28;19919;-77
2023/06/17 04:03:56;;;;;;;;;;;17.00;64.50;;;;;;5110992;28;20372;-77
2023/06/17 04:06:21;;;;;;;;;;;16.90;64.60;;;;;;5109714;28;20511;-77
2023/06/17 04:08:47;;;;;;;;;;;16.90;64.60;;;;;;5110891;27;20002;-74
2023/06/17 04:11:13;;;;;;;;;;;16.90;64.70;;;;;;5110883;28;20425;-74
2023/06/17 04:13:38;;;;;;;;;;;16.90;64.60;;;;;;5110800;28;19931;-74
2023/06/17 04:16:04;;;;;;;;;;;16.90;64.60;;;;;;5110950;28;19916;-77
2023/06/17 04:18:29;;;;;;;;;;;16.80;64.60;;;;;;5108152;28;19912;-77
2023/06/17 04:20:56;;;;;;;;;;;16.80;64.70;;;;;;5110636;28;20390;-77
2023/06/17 04:23:23;;;;;;;;;;;16.80;64.80;;;;;;5110678;28;19919;-77
2023/06/17 04:25:50;;;;;;;;;;;16.80;64.70;;;;;;5110695;28;19945;-77
2023/06/17 04:28:19;;;;;;;;;;;16.90;64.70;;;;;;5109387;28;19908;-77
2023/06/17 04:30:45;;;;;;;;;;;16.90;64.60;;;;;;5110519;28;19953;-77
2023/06/17 04:33:12;;;;;;;;;;;16.90;64.60;;;;;;5110577;28;20399;-77
2023/06/17 04:35:41;;;;;;;;;;;16.90;64.60;;;;;;5110357;28;19912;-77
2023/06/17 04:38:07;;;;;;;;;;;16.80;64.70;;;;;;5110361;28;19916;-77
2023/06/17 04:40:33;;;;;;;;;;;16.80;64.80;;;;;;5110337;28;19923;-77
2023/06/17 04:42:59;;;;;;;;;;;16.80;64.80;;;;;;5110394;28;19916;-77
2023/06/17 04:45:25;;;;;;;;;;;16.80;64.80;;;;;;5110247;28;20343;-77
2023/06/17 04:47:50;;;;;;;;;;;16.90;64.90;;;;;;5110225;28;19920;-77
2023/06/17 04:50:16;;;;;;;;;;;17.00;64.90;;;;;;5110045;28;19912;-77
2023/06/17 04:52:47;;;;;;;;;;;17.00;64.80;;;;;;5110297;28;19912;-77
2023/06/17 04:55:14;;;;;;;;;;;17.00;64.70;;;;;;5110105;27;19923;-77
2023/06/17 04:57:42;;;;;;;;;;;17.00;64.80;;;;;;5109975;28;19915;-77
2023/06/17 05:00:10;;;;;;;;;;;17.00;64.80;;;;;;5109826;28;19908;-77
2023/06/17 05:02:36;;;;;;;;;;;17.00;64.80;;;;;;5108344;28;20316;-77
2023/06/17 05:05:02;;;;;;;;;;;16.90;64.90;;;;;;5110129;27;19919;-77
2023/06/17 05:07:27;;;;;;;;;;;16.90;64.90;;;;;;5109750;28;19912;-77
2023/06/17 05:09:53;;;;;;;;;;;16.80;64.90;;;;;;5109816;28;20010;-77
2023/06/17 05:12:18;;;;;;;;;;;16.80;65.00;;;;;;5108666;28;19919;-77
2023/06/17 05:14:44;;;;;;;;;;;16.80;65.10;;;;;;5109443;28;20310;-77
2023/06/17 05:17:09;;;;;;;;;;;16.90;65.10;;;;;;5109532;28;19912;-77
2023/06/17 05:19:35;;;;;;;;;;;17.00;65.10;;;;;;5109513;28;19927;-77
2023/06/17 05:22:01;;;;;;;;;;;17.00;65.00;;;;;;5109472;28;20283;-77
2023/06/17 05:24:26;;;;;;;;;;;17.20;65.00;;;;;;5109454;28;20000;-77
2023/06/17 05:26:52;;;;;;;;;;;17.30;64.90;;;;;;5109521;28;19912;-76
2023/06/17 05:29:18;;;;;;;;;;;17.40;64.80;;;;;;5109232;28;19923;-74
2023/06/17 05:31:44;;;;;;;;;;;17.50;64.70;;;;;;5109029;28;19919;-71
2023/06/17 05:34:09;;;;;;;;;;;17.50;64.60;;;;;;5109208;28;19944;-71
2023/06/17 05:36:35;;;;;;;;;;;17.50;64.70;;;;;;5109438;28;19912;-71
2023/06/17 05:39:00;;;;;;;;;;;17.60;64.70;;;;;;5109254;28;19915;-73
2023/06/17 05:41:26;;;;;;;;;;;17.60;64.60;;;;;;5107782;28;19938;-73
2023/06/17 05:43:52;;;;;;;;;;;17.60;64.60;;;;;;5108906;28;20425;-73
2023/06/17 05:46:17;;;;;;;;;;;17.60;64.60;;;;;;5109106;28;20437;-74
2023/06/17 05:48:43;;;;;;;;;;;17.60;64.70;;;;;;5108935;28;19945;-73
2023/06/17 05:51:08;;;;;;;;;;;17.60;64.70;;;;;;5108632;28;19919;-73
2023/06/17 05:53:34;;;;;;;;;;;17.60;64.70;;;;;;5108755;28;20383;-73
2023/06/17 05:56:00;;;;;;;;;;;17.70;64.80;;;;;;5108662;28;20426;-73
2023/06/17 05:58:25;;;;;;;;;;;17.80;64.80;;;;;;5107457;28;19918;-73
2023/06/17 06:00:51;;;;;;;;;;;17.90;64.70;;;;;;5107200;28;19920;-73
2023/06/17 06:03:16;;;;;;;;;;;18.00;64.70;;;;;;5107129;28;20411;-73
2023/06/17 06:05:42;;;;;;;;;;;18.10;64.60;;;;;;5108752;28;19964;-73
2023/06/17 06:08:07;;;;;;;;;;;18.10;64.70;;;;;;5108558;28;19919;-73
2023/06/17 06:10:33;;;;;;;;;;;18.20;64.70;;;;;;5108532;28;20428;-73
2023/06/17 06:12:59;;;;;;;;;;;18.30;64.70;;;;;;5108623;28;19922;-73
2023/06/17 06:15:25;;;;;;;;;;;18.40;64.80;;;;;;5108479;28;19913;-73
2023/06/17 06:17:51;;;;;;;;;;;18.40;64.90;;;;;;5108469;28;19912;-73
2023/06/17 06:20:17;;;;;;;;;;;18.40;64.90;;;;;;5108359;28;19919;-73
2023/06/17 06:22:42;;;;;;;;;;;18.50;64.90;;;;;;5108477;28;19916;-73
2023/06/17 06:25:08;;;;;;;;;;;18.70;64.90;;;;;;5108388;28;20364;-73
2023/06/17 06:27:34;;;;;;;;;;;18.80;64.80;;;;;;5108332;28;19912;-73
2023/06/17 06:29:59;;;;;;;;;;;18.90;64.90;;;;;;5108153;28;19916;-73
2023/06/17 06:32:25;;;;;;;;;;;19.00;64.90;;;;;;5108087;28;19912;-73
2023/06/17 06:34:51;;;;;;;;;;;19.10;64.80;;;;;;5108095;28;19930;-73
2023/06/17 06:37:16;;;;;;;;;;;19.10;64.80;;;;;;5108273;27;19908;-73
2023/06/17 06:39:42;;;;;;;;;;;19.10;64.80;;;;;;5108059;28;20001;-73
2023/06/17 06:42:08;;;;;;;;;;;19.10;64.90;;;;;;5107323;28;19915;-73
2023/06/17 06:44:34;;;;;;;;;;;19.00;65.00;;;;;;5108151;28;19915;-73
2023/06/17 06:47:00;;;;;;;;;;;19.00;65.10;;;;;;5106767;28;19924;-73
2023/06/17 06:49:25;;;;;;;;;;;19.00;65.30;;;;;;5108061;28;19958;-73
2023/06/17 06:51:51;;;;;;;;;;;19.00;65.40;;;;;;5107954;28;20057;-73
2023/06/17 06:54:16;;;;;;;;;;;19.20;65.60;;;;;;5107880;28;20261;-73
2023/06/17 06:56:42;;;;;;;;;;;19.30;65.60;;;;;;5108025;28;19916;-73
2023/06/17 06:59:08;;;;;;;;;;;19.40;65.50;;;;;;5108221;28;19992;-73
2023/06/17 07:01:33;;;;;;;;;;;19.50;65.40;;;;;;5107962;28;19961;-73
2023/06/17 07:03:59;;;;;;;;;;;19.60;65.40;;;;;;5107914;28;19928;-73
2023/06/17 07:06:24;;;;;;;;;;;19.60;65.40;;;;;;5107802;28;19911;-73
2023/06/17 07:08:50;;;;;;;;;;;19.70;65.60;;;;;;5107881;28;19912;-73
2023/06/17 07:11:15;;;;;;;;;;;19.80;65.60;;;;;;5107673;28;19912;-73
2023/06/17 07:13:41;;;;;;;;;;;20.00;65.60;;;;;;5107826;28;20427;-73
2023/06/17 07:16:06;;;;;;;;;;;20.10;65.50;;;;;;5106308;28;19981;-73
2023/06/17 07:18:32;;;;;;;;;;;20.10;65.40;;;;;;5107661;28;19917;-73
2023/06/17 07:20:58;;;;;;;;;;;20.10;65.30;;;;;;5107494;28;19951;-73
2023/06/17 07:23:23;;;;;;;;;;;20.00;65.40;;;;;;5107551;28;20382;-73
2023/06/17 07:25:49;;;;;;;;;;;20.00;65.40;;;;;;5107928;28;20362;-73
2023/06/17 07:28:15;;;;;;;;;;;20.00;65.30;;;;;;5107347;28;19972;-73
2023/06/17 07:30:40;;;;;;;;;;;19.90;65.20;;;;;;5106255;28;19911;-73
2023/06/17 07:33:06;;;;;;;;;;;19.90;65.30;;;;;;5107531;28;19912;-72
2023/06/17 07:35:32;;;;;;;;;;;19.90;65.30;;;;;;5105971;28;19978;-73
2023/06/17 07:37:58;;;;;;;;;;;19.90;65.20;;;;;;5107420;28;20384;-73
2023/06/17 07:40:23;;;;;;;;;;;19.90;65.30;;;;;;5107487;28;19923;-73
2023/06/17 07:42:49;;;;;;;;;;;19.90;65.20;;;;;;5107601;28;20396;-73
2023/06/17 07:45:15;;;;;;;;;;;19.90;65.20;;;;;;5107362;28;20236;-73
2023/06/17 07:47:40;;;;;;;;;;;19.80;65.10;;;;;;5107563;28;19916;-73
2023/06/17 07:50:08;;;;;;;;;;;19.70;65.10;;;;;;5107237;28;19965;-73
2023/06/17 07:52:35;;;;;;;;;;;19.70;65.10;;;;;;5107446;28;19938;-73
2023/06/17 07:55:01;;;;;;;;;;;19.60;65.10;;;;;;5110575;28;19916;-73
2023/06/17 07:57:26;;;;;;;;;;;19.50;65.20;;;;;;5110287;28;19919;-73
2023/06/17 07:59:52;;;;;;;;;;;19.50;65.30;;;;;;5110385;28;20376;-71
2023/06/17 08:02:17;;;;;;;;;;;19.50;65.30;;;;;;5108993;28;19928;-70
2023/06/17 08:04:44;;;;;;;;;;;19.50;65.30;;;;;;5110854;28;19922;-70
2023/06/17 08:07:11;;;;;;;;;;;19.50;65.20;;;;;;5109237;28;19908;-71
2023/06/17 08:09:36;;;;;;;;;;;19.60;65.20;;;;;;5110656;28;20272;-71
2023/06/17 08:12:02;;;;;;;;;;;19.60;65.20;;;;;;5109181;28;19922;-71
2023/06/17 08:14:28;;;;;;;;;;;19.60;65.20;;;;;;5110191;28;20382;-71
2023/06/17 08:16:53;;;;;;;;;;;19.60;65.10;;;;;;5110424;28;19965;-71
2023/06/17 08:19:19;;;;;;;;;;;19.40;65.10;;;;;;5110478;28;20002;-71
2023/06/17 08:21:45;;;;;;;;;;;19.30;65.20;;;;;;5110251;28;19915;-71
2023/06/17 08:24:21;;;;;;;;;;;19.20;65.20;;;;;;5110433;28;19915;-71
2023/06/17 08:26:47;;;;;;;;;;;19.00;65.30;;;;;;5109368;28;20442;-71
2023/06/17 08:29:13;;;;;;;;;;;18.90;65.40;;;;;;5111472;28;19944;-72
2023/06/17 08:31:42;;;;;;;;;;;18.90;65.60;;;;;;5111518;28;19918;-72
2023/06/17 08:34:08;;;;;;;;;;;19.00;66.10;;;;;;5111234;27;20348;-73
2023/06/17 08:36:34;;;;;;;;;;;19.00;65.60;;;;;;5109972;28;20011;-72
2023/06/17 08:39:00;;;;;;;;;;;19.10;65.50;;;;;;5111100;27;19943;-72
2023/06/17 08:41:26;;;;;;;;;;;19.20;65.40;;;;;;5111134;28;20283;-72
2023/06/17 08:43:55;;;;;;;;;;;19.10;65.10;;;;;;5110918;28;20400;-73
2023/06/17 08:46:21;;;;;;;;;;;19.10;65.10;;;;;;5110637;28;20336;-72
2023/06/17 08:48:48;;;;;;;;;;;19.00;65.10;;;;;;5111056;28;20257;-73
2023/06/17 08:51:14;;;;;;;;;;;19.00;65.00;;;;;;5110778;28;20384;-73
2023/06/17 08:53:41;;;;;;;;;;;18.90;65.00;;;;;;5110759;28;19935;-75
2023/06/17 08:56:07;;;;;;;;;;;18.80;65.00;;;;;;5110412;27;19912;-72
2023/06/17 08:58:37;;;;;;;;;;;18.70;65.00;;;;;;5109317;28;19916;-75
2023/06/17 09:01:03;;;;;;;;;;;18.60;65.00;;;;;;5110430;28;19912;-72
2023/06/17 09:03:30;;;;;;;;;;;18.50;65.00;;;;;;5110539;28;19973;-73
2023/06/17 09:05:56;;;;;;;;;;;18.40;65.00;;;;;;5109665;28;20442;-72
2023/06/17 09:08:22;;;;;;;;;;;18.30;65.00;;;;;;5109107;28;19994;-72
2023/06/17 09:10:47;;;;;;;;;;;18.10;65.10;;;;;;5110102;28;19916;-72
2023/06/17 09:13:13;;;;;;;;;;;18.00;65.30;;;;;;5110420;28;19911;-73
2023/06/17 09:15:40;;;;;;;;;;;17.90;65.50;;;;;;5107117;28;19920;-73
2023/06/17 09:18:07;;;;;;;;;;;17.90;65.60;;;;;;5094381;28;19912;-72
2023/06/17 09:20:32;;;;;;;;;;;17.90;65.80;;;;;;5095852;28;20017;-73
2023/06/17 09:22:58;;;;;;;;;;;17.80;65.70;;;;;;5099118;28;19912;-72
2023/06/17 09:25:23;;;;;;;;;;;17.80;65.60;;;;;;5098701;28;19916;-72
2023/06/17 09:27:50;;;;;;;;;;;17.80;65.60;;;;;;5101151;27;19908;-72
2023/06/17 09:30:16;;;;;;;;;;;17.70;65.70;;;;;;5099799;28;19923;-73
2023/06/17 09:32:46;;;;;;;;;;;17.60;65.80;;;;;;5097934;28;19908;-73
2023/06/17 09:35:14;;;;;;;;;;;17.60;66.00;;;;;;5101803;28;19960;-72
2023/06/17 09:37:41;;;;;;;;;;;17.60;66.20;;;;;;5099732;28;19916;-73
2023/06/17 09:40:07;;;;;;;;;;;17.60;66.30;;;;;;5098038;28;19923;-73
2023/06/17 09:42:33;;;;;;;;;;;17.70;66.20;;;;;;5094268;28;19916;-73
2023/06/17 09:45:03;;;;;;;;;;;17.80;65.90;;;;;;5101885;28;19953;-73
2023/06/17 09:47:37;;;;;;;;;;;17.90;65.80;;;;;;5090929;28;19916;-73
2023/06/17 09:50:09;;;;;;;;;;;18.00;65.90;;;;;;5094759;28;20074;-73
2023/06/17 09:52:37;;;;;;;;;;;18.10;65.70;;;;;;5092009;28;19990;-73
2023/06/17 09:55:05;;;;;;;;;;;18.10;65.70;;;;;;5097016;28;20403;-73
2023/06/17 09:57:35;;;;;;;;;;;18.20;65.90;;;;;;5097715;28;20372;-73
2023/06/17 10:00:10;;;;;;;;;;;18.30;65.90;;;;;;5093628;28;19912;-72
2023/06/17 10:02:36;;;;;;;;;;;18.50;65.80;;;;;;5089112;28;19924;-73
2023/06/17 10:05:03;;;;;;;;;;;18.60;65.80;;;;;;5089263;28;19926;-76
2023/06/17 10:07:29;;;;;;;;;;;18.70;65.80;;;;;;5089233;28;19913;-73
2023/06/17 10:09:54;;;;;;;;;;;18.80;65.70;;;;;;5088983;28;19912;-73
2023/06/17 10:12:22;;;;;;;;;;;19.00;65.70;;;;;;5088844;28;19918;-72
2023/06/17 10:14:48;;;;;;;;;;;19.20;65.60;;;;;;5088805;28;20023;-73
2023/06/17 10:17:14;;;;;;;;;;;19.40;65.70;;;;;;5088674;28;20390;-72
2023/06/17 10:19:41;;;;;;;;;;;19.60;65.60;;;;;;5089053;28;20023;-72
2023/06/17 10:22:09;;;;;;;;;;;19.90;65.70;;;;;;5088704;28;19965;-72
2023/06/17 10:24:35;;;;;;;;;;;20.20;65.60;;;;;;5087914;28;19931;-72
2023/06/17 10:27:05;;;;;;;;;;;20.60;65.60;;;;;;5087408;28;19934;-72
2023/06/17 10:29:31;;;;;;;;;;;20.90;65.30;;;;;;5088629;28;19908;-72
2023/06/17 10:32:08;;;;;;;;;;;21.10;65.70;;;;;;5088130;28;20361;-75
2023/06/17 10:34:33;;;;;;;;;;;21.30;65.20;;;;;;5088176;28;20337;-73
2023/06/17 10:37:00;;;;;;;;;;;21.30;65.30;;;;;;5088340;28;19947;-73
2023/06/17 10:39:26;;;;;;;;;;;21.60;66.10;;;;;;5088320;28;19996;-74
2023/06/17 10:41:55;;;;;;;;;;;22.50;66.60;;;;;;5088152;28;19983;-74
2023/06/17 10:44:24;;;;;;;;;;;23.00;65.90;;;;;;5088049;28;20541;-74
2023/06/17 10:46:50;;;;;;;;;;;23.30;65.90;;;;;;5088204;28;19939;-74
2023/06/17 10:49:19;;;;;;;;;;;23.90;66.30;;;;;;5088332;28;19965;-74
2023/06/17 10:51:47;;;;;;;;;;;24.60;66.00;;;;;;5087418;28;20340;-73
2023/06/17 10:54:13;;;;;;;;;;;25.30;66.10;;;;;;5088041;28;20353;-74
2023/06/17 10:56:51;;;;;;;;;;;26.20;66.10;;;;;;5088302;28;19919;-74
2023/06/17 10:59:26;;;;;;;;;;;26.80;65.80;;;;;;5087823;28;20272;-75
2023/06/17 11:02:12;;;;;;;;;;;27.50;66.10;;;;;;5087409;28;20010;-75
2023/06/17 11:04:43;;;;;;;;;;;28.00;65.80;;;;;;5086671;28;19920;-74
2023/06/17 11:07:09;;;;;;;;;;;28.50;66.10;;;;;;5086698;28;19962;-73
2023/06/17 11:09:35;;;;;;;;;;;29.30;66.70;;;;;;5088106;28;19916;-72
2023/06/17 11:12:02;;;;;;;;;;;30.00;66.90;;;;;;5087910;28;20331;-73
2023/06/17 11:14:29;;;;;;;;;;;30.50;67.00;;;;;;5086221;28;20322;-73
2023/06/17 11:16:54;;;;;;;;;;;31.10;67.40;;;;;;5086768;28;19908;-71
2023/06/17 11:19:20;;;;;;;;;;;31.10;66.50;;;;;;5088083;28;20341;-73
2023/06/17 11:21:49;;;;;;;;;;;30.60;66.10;;;;;;5088058;28;19919;-73
2023/06/17 11:24:15;;;;;;;;;;;30.20;66.80;;;;;;5087782;28;19908;-72
2023/06/17 11:26:42;;;;;;;;;;;29.80;67.20;;;;;;5087025;28;20332;-74
2023/06/17 11:29:08;;;;;;;;;;;29.10;66.60;;;;;;5089413;28;19908;-72
2023/06/17 11:31:36;;;;;;;;;;;28.30;66.30;;;;;;5091892;28;20274;-72
2023/06/17 11:34:02;;;;;;;;;;;27.70;66.70;;;;;;5091616;28;19962;-72
2023/06/17 11:36:28;;;;;;;;;;;27.30;66.90;;;;;;5091292;28;19959;-72
2023/06/17 11:38:54;;;;;;;;;;;27.00;66.80;;;;;;5091557;28;19974;-72
2023/06/17 11:41:20;;;;;;;;;;;26.70;67.10;;;;;;5091286;28;19921;-73
2023/06/17 11:43:45;;;;;;;;;;;27.00;68.20;;;;;;5091901;28;20364;-72
2023/06/17 11:46:11;;;;;;;;;;;27.50;68.40;;;;;;5090145;28;19908;-73
2023/06/17 11:48:37;;;;;;;;;;;28.00;68.10;;;;;;5091421;28;19919;-72
2023/06/17 11:51:02;;;;;;;;;;;27.90;66.90;;;;;;5091328;28;19912;-72
2023/06/17 11:53:36;;;;;;;;;;;27.60;66.90;;;;;;5091103;28;19955;-72
2023/06/17 11:56:11;;;;;;;;;;;27.20;66.70;;;;;;5091475;28;19916;-72
2023/06/17 11:58:39;;;;;;;;;;;26.60;66.60;;;;;;5091351;28;19945;-72
2023/06/17 12:01:05;;;;;;;;;;;26.10;66.80;;;;;;5091036;28;19927;-72
2023/06/17 12:03:31;;;;;;;;;;;25.70;67.00;;;;;;5090746;28;19920;-72
2023/06/17 12:05:59;;;;;;;;;;;25.40;66.90;;;;;;5090455;28;19912;-72
2023/06/17 12:08:35;;;;;;;;;;;25.10;66.90;;;;;;5091004;28;19920;-71
2023/06/17 12:11:07;;;;;;;;;;;24.90;67.10;;;;;;5090536;28;20348;-71
2023/06/17 12:13:37;;;;;;;;;;;24.60;67.00;;;;;;5090067;28;19960;-72
2023/06/17 12:16:02;;;;;;;;;;;24.40;67.20;;;;;;5090585;28;19912;-74
2023/06/17 12:18:28;;;;;;;;;;;24.20;67.50;;;;;;5090162;28;20398;-74
2023/06/17 12:20:54;;;;;;;;;;;24.20;67.50;;;;;;5089076;28;19962;-72
2023/06/17 12:23:19;;;;;;;;;;;24.20;67.30;;;;;;5090124;28;19912;-71
2023/06/17 12:25:46;;;;;;;;;;;24.10;67.20;;;;;;5090335;28;20357;-72
2023/06/17 12:28:13;;;;;;;;;;;24.10;67.20;;;;;;5090146;28;19918;-72
2023/06/17 12:30:39;;;;;;;;;;;24.20;67.10;;;;;;5090107;28;20384;-71
2023/06/17 12:33:04;;;;;;;;;;;24.40;67.10;;;;;;5090136;28;19947;-74
2023/06/17 12:35:30;;;;;;;;;;;24.50;67.20;;;;;;5089841;28;19916;-71
2023/06/17 12:37:56;;;;;;;;;;;25.10;68.10;;;;;;5090347;28;19917;-73
2023/06/17 12:40:21;;;;;;;;;;;26.20;68.60;;;;;;5088896;28;20331;-73
2023/06/17 12:42:47;;;;;;;;;;;26.90;67.80;;;;;;5089849;28;19958;-72
2023/06/17 12:45:12;;;;;;;;;;;27.00;67.60;;;;;;5089506;28;19916;-72
2023/06/17 12:47:38;;;;;;;;;;;27.20;67.70;;;;;;5090199;28;19912;-72
2023/06/17 12:50:05;;;;;;;;;;;27.00;67.50;;;;;;5090012;28;19912;-72
2023/06/17 12:52:31;;;;;;;;;;;26.80;67.40;;;;;;5089842;28;19919;-72
2023/06/17 12:54:58;;;;;;;;;;;26.40;67.40;;;;;;5087870;28;20501;-71
2023/06/17 12:57:24;;;;;;;;;;;25.90;67.40;;;;;;5089487;28;19926;-72
2023/06/17 12:59:50;;;;;;;;;;;25.60;67.50;;;;;;5089535;28;20036;-72
2023/06/17 13:02:15;;;;;;;;;;;25.30;67.60;;;;;;5089259;28;19939;-73
2023/06/17 13:04:41;;;;;;;;;;;25.00;67.60;;;;;;5089386;28;19915;-72
2023/06/17 13:07:07;;;;;;;;;;;25.10;68.50;;;;;;5095287;28;19918;-73
2023/06/17 13:09:34;;;;;;;;;;;25.80;69.10;;;;;;5091818;28;19920;-72
2023/06/17 13:12:00;;;;;;;;;;;26.30;68.80;;;;;;5097297;28;20347;-72
2023/06/17 13:14:27;;;;;;;;;;;26.70;68.20;;;;;;5095855;28;19922;-73
2023/06/17 13:16:53;;;;;;;;;;;26.60;67.80;;;;;;5107723;28;20019;-72
2023/06/17 13:19:19;;;;;;;;;;;26.40;67.60;;;;;;5098603;28;19923;-72
2023/06/17 13:21:46;;;;;;;;;;;26.20;67.60;;;;;;5100001;28;19908;-72
2023/06/17 13:24:14;;;;;;;;;;;26.10;67.50;;;;;;5098181;28;19919;-73
2023/06/17 13:26:40;;;;;;;;;;;26.00;67.30;;;;;;5096592;28;19916;-73
2023/06/17 13:29:06;;;;;;;;;;;25.90;67.30;;;;;;5097762;28;19908;-73
2023/06/17 13:31:34;;;;;;;;;;;25.70;67.10;;;;;;5099624;28;19915;-73
2023/06/17 13:34:00;;;;;;;;;;;25.40;67.00;;;;;;5097906;28;19916;-72
2023/06/17 13:36:26;;;;;;;;;;;25.20;67.00;;;;;;5095217;28;19964;-72
2023/06/17 13:38:52;;;;;;;;;;;24.90;67.20;;;;;;5103433;28;19990;-72
2023/06/17 13:41:17;;;;;;;;;;;24.80;67.30;;;;;;5098021;28;19915;-72
2023/06/17 13:43:43;;;;;;;;;;;24.70;67.30;;;;;;5093654;28;19916;-72
2023/06/17 13:46:09;;;;;;;;;;;24.60;67.40;;;;;;5095467;28;20283;-72
2023/06/17 13:48:34;;;;;;;;;;;24.60;67.50;;;;;;5098791;28;20399;-71
2023/06/17 13:51:01;;;;;;;;;;;24.70;67.30;;;;;;5097140;28;20058;-72
2023/06/17 13:53:26;;;;;;;;;;;24.80;67.20;;;;;;5097330;28;19912;-72
2023/06/17 13:55:52;;;;;;;;;;;24.60;67.00;;;;;;5100093;28;20310;-72
2023/06/17 13:58:18;;;;;;;;;;;24.50;67.00;;;;;;5100008;28;20003;-72
2023/06/17 14:00:44;;;;;;;;;;;24.40;67.20;;;;;;5103083;27;19955;-72
2023/06/17 14:03:10;;;;;;;;;;;24.30;67.10;;;;;;5108587;28;19974;-73
2023/06/17 14:05:35;;;;;;;;;;;24.30;67.00;;;;;;5108943;28;19913;-74
2023/06/17 14:08:01;;;;;;;;;;;24.40;66.80;;;;;;5108929;28;19922;-73
2023/06/17 14:10:26;;;;;;;;;;;24.40;66.70;;;;;;5108854;28;19912;-73
2023/06/17 14:12:52;;;;;;;;;;;24.40;67.00;;;;;;5109088;28;19908;-73